Airfield :







YOU CAN JOIN US ON...

 
LOGIN :

Register | Disclaimer

   EN    FR    IT 

 









Legend :    VFR   Marginal VFR   IFR   Intensive IFR   Very Intensive IFR
Visi :
Ceiling :
>= 8 km
>= 3000ft
5 to 8 km
1000 to 3000 ft
1500m to 5 km
500 to 1000 ft
800 to 1500m
200 to 500 ft
< 800m
< 200 ft
Symbols :   Thunderstorms  Fog  Heavy snow  Heavy precipitations  Wind > 20 kt






- Airport Elevation : 266 ft
- IATA code : MHT


KMHT - Manchester

CURRENT METAR :
  • 170353Z 00000KT 10SM CLR M06/M17 A3052 RMK AO2 SLP355 T10561172

EXPIRED METARs :
  • 170253Z 34005KT 10SM CLR M05/M18 A3052 RMK AO2 SLP355 T10501178 51009
  • 170153Z 36006KT 10SM CLR M04/M18 A3052 RMK AO2 SLP354 T10391178

TAF KMHT
Valid from the 17 at 00:00 until the 18 at 00:00 UTC


162320Z 1700/1724 36004KT P6SM SKC
FM171700 04005KT P6SM BKN024



MET'MAP, your aeronautical weather chart ! - Copyright ORBIFLY December 2007 - Disclaimer

ORBIFLY MET'MAP TEAM :

Programming & Development : Alexandra Zaïnal
Concept & Development : Baudouin d'Aumeries
Co-Development & Prog : Marc-Olivier Méhu
Technical & hardware support : Manuel Goepfert

Contact : metmap@orbifly.com




SOURCES & CREDITS :

   NOAA